Latest Weather Observations for Richmond

IDN60901

Issued at 5:41 pm EST Wednesday 23 September 2020 (issued every 10 minutes, with the page automatically refreshed every 10 minutes)

About weather observations | Map of Sydney area stations | Latest observations for Sydney area | Other Formats
Station Details ID: 067105 Name: RICHMOND RAAF Lat: -33.60 Lon: 150.78 Height: 19.0 m
Data from the previous 72 hours. | See also: Recent months at Richmond
Date/Time
EST
Temp
°C
App
Temp
°C
Dew
Point
°C
Rel
Hum
%
Delta-T
°C
Wind Press
QNH
hPa
Press
MSL
hPa
Rain since
9am
mm
Dir  Spd
km/h
Gust
km/h
Spd
kts
Gust
kts
23/05:30pm 18.8 12.7 3.0 35 7.3 W 24 41 13 22 1012.2 1012.2 -
23/05:16pm 19.3 13.3 3.5 35 7.4 W 24 35 13 19 1011.9 1011.9 -
23/05:00pm 19.9 13.1 3.2 33 7.9 WNW 28 37 15 20 1011.7 1011.7 -
23/04:47pm 20.2 13.4 3.0 32 8.1 W 28 44 15 24 1011.4 1011.4 -
23/04:30pm 20.5 12.3 2.8 31 8.3 W 35 56 19 30 1011.1 1011.1 -
23/04:22pm 20.4 13.5 2.7 31 8.3 WNW 28 56 15 30 1011.0 1011.0 -
23/04:20pm 20.2 13.3 2.5 31 8.2 WNW 28 41 15 22 1011.0 1011.0 -
23/04:09pm 21.1 14.3 2.9 30 8.6 W 28 39 15 21 1010.8 1010.8 -
23/04:06pm 21.2 14.0 3.0 30 8.6 W 30 43 16 23 1010.7 1010.7 -
23/04:00pm 21.1 12.9 2.9 30 8.6 W 35 56 19 30 1010.6 1010.6 -
23/03:47pm 21.4 14.0 4.0 32 8.4 WNW 32 50 17 27 1010.5 1010.5 -
23/03:41pm 21.3 13.1 2.6 29 8.8 W 35 52 19 28 1010.3 1010.3 -
23/03:33pm 21.6 14.1 3.3 30 8.7 WNW 32 52 17 28 1010.2 1010.2 -
23/03:30pm 21.6 14.0 3.8 31 8.6 WNW 33 44 18 24 1010.2 1010.2 -
23/03:00pm - - - - - - - - - - - - -
23/02:30pm - - - - - - - - - - - - -
23/02:00pm - - - - - - - - - - - - -
23/01:30pm 22.3 14.7 3.9 30 8.9 WNW 33 50 18 27 1010.5 1010.5 0.0
23/01:04pm 22.7 16.3 5.2 32 8.7 WNW 28 46 15 25 1010.7 1010.7 0.0
23/01:00pm 22.8 16.6 6.1 34 8.5 WNW 28 41 15 22 1010.7 1010.7 0.0
23/12:42pm 22.3 14.4 4.4 31 8.8 WNW 35 46 19 25 1010.7 1010.7 0.0
23/12:31pm 22.4 15.7 5.8 34 8.4 WNW 30 52 16 28 1010.7 1010.7 0.0
23/12:30pm 22.1 15.6 4.7 32 8.6 WNW 28 43 15 23 1010.8 1010.8 0.0
23/12:23pm 22.2 15.8 5.2 33 8.5 WNW 28 46 15 25 1010.9 1010.9 0.0
23/12:00pm 22.1 16.1 5.1 33 8.4 WNW 26 43 14 23 1011.2 1011.2 0.0
23/11:30am 21.3 15.3 5.2 35 8.0 WNW 26 39 14 21 1011.7 1011.7 0.0
23/11:07am 21.2 16.5 3.4 31 8.5 W 17 43 9 23 1011.9 1011.9 0.0
23/11:00am 20.9 15.2 2.7 30 8.5 WNW 22 39 12 21 1012.1 1012.1 0.0
23/10:30am 21.3 16.3 4.8 34 8.1 WNW 20 35 11 19 1012.4 1012.4 0.0
23/10:00am 20.5 14.6 3.7 33 8.0 W 24 39 13 21 1012.6 1012.6 0.0
23/09:30am 20.7 15.0 5.1 36 7.7 WSW 24 35 13 19 1012.7 1012.7 0.0
23/09:00am 20.1 14.7 4.6 36 7.5 W 22 33 12 18 1012.9 1012.9 0.0
23/08:30am 19.3 15.4 3.5 35 7.4 WSW 13 19 7 10 1013.1 1013.1 0.0
23/08:00am 18.5 16.6 4.7 40 6.6 W 4 9 2 5 1013.2 1013.2 0.0
23/07:30am 17.2 16.6 7.5 53 4.9 CALM 0 6 0 3 1013.1 1013.1 0.0
23/07:00am 15.9 14.5 7.1 56 4.4 W 4 7 2 4 1012.8 1012.8 0.0
23/06:30am 13.7 12.1 6.3 61 3.5 W 4 17 2 9 1012.4 1012.4 0.0
23/06:00am 11.4 8.8 5.9 69 2.6 N 9 11 5 6 1012.1 1012.1 0.0
23/05:30am 10.6 8.0 6.2 74 2.1 N 9 13 5 7 1011.9 1011.9 0.0
23/05:00am 11.4 9.5 5.1 65 2.9 NNW 4 11 2 6 1011.6 1011.6 0.0
23/04:30am 13.0 11.9 5.2 59 3.6 CALM 0 7 0 4 1011.3 1011.3 0.0
23/04:00am 13.7 12.3 5.3 57 3.9 SE 2 11 1 6 1011.2 1011.2 0.0
23/03:30am 12.9 11.8 5.1 59 3.6 CALM 0 7 0 4 1011.3 1011.3 0.0
23/03:00am 12.8 11.6 4.8 58 3.7 CALM 0 0 0 0 1011.3 1011.3 0.0
23/02:30am 15.6 14.3 6.1 53 4.6 NW 2 6 1 3 1011.5 1011.5 0.0
23/02:00am 14.6 12.7 6.9 60 3.8 NNW 6 11 3 6 1011.7 1011.7 0.0
23/01:30am 14.0 12.0 7.1 63 3.4 S 7 11 4 6 1012.0 1012.0 0.0
23/01:00am 16.7 14.8 7.4 54 4.7 SW 7 13 4 7 1012.0 1012.0 0.0
23/12:30am 15.2 13.9 7.5 60 3.8 N 4 9 2 5 1012.1 1012.1 0.0
23/12:00am 16.9 13.7 7.0 52 4.9 W 13 20 7 11 1012.0 1012.0 0.0
 
Date/Time
EST
Temp
°C
App
Temp
°C
Dew
Point
°C
Rel
Hum
%
Delta-T
°C
Wind Press
QNH
hPa
Press
MSL
hPa
Rain since
9am
mm
Dir  Spd
km/h
Gust
km/h
Spd
kts
Gust
kts
22/11:30pm 16.8 14.0 6.9 52 4.9 WNW 11 17 6 9 1012.0 1012.0 0.0
22/11:00pm 17.4 13.8 6.9 50 5.2 NNW 15 19 8 10 1012.0 1012.0 0.0
22/10:30pm 17.3 14.9 6.8 50 5.2 NW 9 11 5 6 1012.1 1012.1 0.0
22/10:00pm 18.2 15.8 7.0 48 5.6 WNW 9 13 5 7 1012.1 1012.1 0.0
22/09:30pm 18.0 14.8 6.8 48 5.6 WNW 13 17 7 9 1012.3 1012.3 0.0
22/09:00pm 18.2 15.0 7.0 48 5.6 WNW 13 17 7 9 1012.5 1012.5 0.0
22/08:30pm 17.8 15.0 7.0 49 5.4 WNW 11 17 6 9 1012.3 1012.3 0.0
22/08:00pm 18.0 14.7 6.5 47 5.7 WSW 13 15 7 8 1012.1 1012.1 0.0
22/07:30pm 20.5 15.3 5.7 38 7.3 W 22 30 12 16 1011.9 1011.9 0.0
22/07:00pm 20.1 15.8 5.4 38 7.2 W 17 30 9 16 1011.3 1011.3 0.0
22/06:30pm 20.6 16.6 5.0 36 7.6 WSW 15 20 8 11 1010.9 1010.9 0.0
22/06:00pm 21.5 17.1 4.6 33 8.3 WSW 17 22 9 12 1010.3 1010.3 0.0
22/05:30pm 22.9 18.0 3.9 29 9.3 WSW 19 24 10 13 1009.8 1009.8 0.0
22/05:00pm 24.0 19.4 3.9 27 9.9 WSW 17 26 9 14 1009.4 1009.4 0.0
22/04:30pm 24.9 20.4 4.1 26 10.3 WSW 17 24 9 13 1009.0 1009.0 0.0
22/04:00pm 25.5 20.3 3.5 24 10.9 W 20 35 11 19 1008.7 1008.7 0.0
22/03:30pm 26.0 19.6 3.3 23 11.2 W 26 37 14 20 1008.6 1008.6 0.0
22/03:00pm 26.3 21.3 3.5 23 11.3 WSW 19 26 10 14 1008.6 1008.6 0.0
22/02:30pm 26.3 20.1 4.1 24 11.1 W 26 41 14 22 1008.5 1008.5 0.0
22/02:00pm 26.2 21.2 4.6 25 10.9 W 20 32 11 17 1008.7 1008.7 0.0
22/01:30pm 25.7 20.8 4.2 25 10.7 WSW 19 26 10 14 1008.8 1008.8 0.0
22/01:00pm 25.5 20.7 4.6 26 10.5 WSW 19 26 10 14 1009.1 1009.1 0.0
22/12:30pm 25.4 19.6 6.1 29 10.0 W 26 37 14 20 1009.3 1009.3 0.0
22/12:00pm 25.1 19.0 4.8 27 10.2 W 26 35 14 19 1009.7 1009.7 0.0
22/11:30am 25.2 18.0 3.2 24 10.8 W 30 43 16 23 1009.9 1009.9 0.0
22/11:00am 24.5 18.0 2.6 24 10.6 W 26 39 14 21 1010.1 1010.1 0.0
22/10:30am 23.6 18.9 5.0 30 9.3 WNW 19 28 10 15 1010.7 1010.7 0.0
22/10:00am 23.3 19.2 6.1 33 8.8 W 17 24 9 13 1010.9 1010.9 0.0
22/09:30am 22.6 18.5 6.0 34 8.4 WSW 17 24 9 13 1011.0 1011.0 0.0
22/09:00am 22.2 18.9 8.0 40 7.4 SW 15 20 8 11 1010.9 1010.9 0.2
22/08:30am 22.0 18.1 9.5 45 6.7 WNW 20 26 11 14 1010.6 1010.6 0.2
22/08:00am 22.0 18.6 11.4 51 5.9 W 20 24 11 13 1010.5 1010.5 0.2
22/07:30am 21.5 19.6 14.2 63 4.3 W 17 22 9 12 1010.4 1010.4 0.2
22/07:00am 20.4 18.7 13.6 65 3.9 SW 15 20 8 11 1009.7 1009.7 0.2
22/06:30am 20.4 19.1 14.7 70 3.3 WSW 15 19 8 10 1008.9 1008.9 0.2
22/06:00am 19.2 19.2 15.3 78 2.3 WSW 9 15 5 8 1008.4 1008.4 0.2
22/05:30am 18.1 18.3 14.6 80 2.0 SW 7 15 4 8 1007.9 1007.9 0.2
22/05:00am 20.3 19.7 14.7 70 3.3 NNW 11 17 6 9 1007.3 1007.3 0.2
22/04:30am 19.3 18.6 14.3 73 2.9 NE 11 13 6 7 1006.9 1006.9 0.2
22/04:00am 21.7 20.8 14.8 65 4.1 N 13 22 7 12 1006.7 1006.7 0.2
22/03:30am 21.1 20.1 14.5 66 3.9 N 13 20 7 11 1006.4 1006.4 0.2
22/03:00am 20.9 18.7 14.3 66 3.9 NNE 19 24 10 13 1005.6 1005.6 0.2
22/02:30am 19.3 18.0 13.7 70 3.2 NE 13 17 7 9 1006.0 1006.0 0.2
22/02:00am 19.3 17.8 13.0 67 3.6 ENE 13 15 7 8 1006.2 1006.2 0.2
22/01:30am 21.5 21.0 12.6 57 5.0 NE 7 9 4 5 1006.6 1006.6 0.2
22/01:00am 21.1 20.2 12.5 58 4.9 N 9 13 5 7 1006.7 1006.7 0.2
22/12:30am 22.0 20.4 12.8 56 5.2 N 13 17 7 9 1007.1 1007.1 0.2
22/12:00am 22.4 20.0 12.6 54 5.6 NNW 17 28 9 15 1007.1 1007.1 0.2
 
Date/Time
EST
Temp
°C
App
Temp
°C
Dew
Point
°C
Rel
Hum
%
Delta-T
°C
Wind Press
QNH
hPa
Press
MSL
hPa
Rain since
9am
mm
Dir  Spd
km/h
Gust
km/h
Spd
kts
Gust
kts
21/11:30pm 23.0 20.6 12.6 52 5.9 NNW 17 28 9 15 1007.1 1007.1 0.2
21/11:00pm 23.7 19.9 13.6 53 5.9 NNW 26 35 14 19 1007.2 1007.2 0.2
21/10:30pm 23.1 22.6 16.9 68 3.8 NNE 15 22 8 12 1007.2 1007.2 0.2
21/10:00pm 22.9 22.3 16.7 68 3.8 NE 15 17 8 9 1007.3 1007.3 0.2
21/09:30pm 23.3 22.7 16.6 66 4.1 NNE 15 17 8 9 1008.0 1008.0 0.2
21/09:00pm 22.7 23.1 16.3 67 3.9 NNE 9 11 5 6 1008.1 1008.1 0.2
21/08:30pm 23.2 23.6 16.3 65 4.2 NNE 9 13 5 7 1007.8 1007.8 0.2
21/08:00pm 23.3 23.2 15.9 63 4.5 N 11 15 6 8 1007.7 1007.7 0.2
21/07:30pm 23.8 23.6 15.8 61 4.8 NNE 11 17 6 9 1006.9 1006.9 0.2
21/07:00pm 24.4 23.5 15.9 59 5.2 NNE 15 20 8 11 1006.5 1006.5 0.2
21/06:30pm 25.2 23.7 16.4 58 5.4 N 19 24 10 13 1005.9 1005.9 0.2
21/06:00pm 25.9 24.4 16.7 57 5.7 N 20 28 11 15 1005.0 1005.0 0.2
21/05:30pm 26.0 24.4 16.5 55 5.9 NNE 20 32 11 17 1004.7 1004.7 0.2
21/05:00pm 27.5 25.2 15.8 48 7.2 NNE 22 37 12 20 1004.7 1004.7 0.2
21/04:30pm 28.4 26.8 16.0 47 7.7 NNE 19 26 10 14 1005.0 1005.0 0.2
21/04:00pm 29.6 27.7 14.2 39 9.3 N 17 24 9 13 1005.4 1005.4 0.2
21/03:30pm 30.4 28.6 13.2 35 10.3 NW 15 22 8 12 1005.7 1005.7 0.2
21/03:00pm 30.1 28.2 14.2 38 9.6 NNW 17 24 9 13 1006.2 1006.2 0.2
21/02:30pm 28.4 27.6 15.0 44 8.1 N 13 17 7 9 1006.8 1006.8 0.2
21/02:00pm 28.2 26.8 15.5 46 7.8 N 17 24 9 13 1007.2 1007.2 0.2
21/01:30pm 27.2 26.2 17.9 56 5.9 NNE 20 30 11 16 1007.6 1007.6 0.2
21/01:00pm 29.9 26.0 14.4 38 9.4 NNW 28 39 15 21 1007.8 1007.8 0.2
21/12:30pm 28.3 27.4 17.8 53 6.7 N 19 28 10 15 1008.2 1008.2 0.2
21/12:00pm 27.4 26.8 18.9 59 5.5 NNE 20 28 11 15 1008.7 1008.7 0.2
21/11:30am 26.5 25.2 17.3 57 5.8 NNE 20 28 11 15 1009.1 1009.1 0.2
21/11:00am 26.3 24.7 17.4 58 5.6 NNE 22 32 12 17 1009.6 1009.6 0.2
21/10:30am 26.1 25.0 17.7 60 5.3 N 20 30 11 16 1010.2 1010.2 0.0
21/10:00am 24.7 23.1 17.4 64 4.5 N 22 30 12 16 1010.8 1010.8 0.0
21/09:30am 23.9 22.7 17.4 67 4.0 N 20 28 11 15 1011.2 1011.2 0.0
21/09:00am 22.7 21.8 17.8 74 3.1 N 19 24 10 13 1011.6 1011.6 3.0
21/08:30am 20.2 21.9 18.1 88 1.3 N 6 9 3 5 1011.9 1011.9 3.0
21/08:00am 17.5 19.7 16.5 94 0.6 CALM 0 0 0 0 1012.0 1012.0 3.0
21/07:30am 15.5 16.9 15.3 99 0.1 S 2 6 1 3 1012.1 1012.1 3.0
21/07:00am 13.9 13.9 13.7 99 0.1 S 6 7 3 4 1012.0 1012.0 3.0
21/06:48am 13.1 14.0 12.9 99 0.1 CALM 0 0 0 0 1011.9 1011.9 3.0
21/06:30am 12.4 13.1 12.2 99 0.1 CALM 0 0 0 0 1012.0 1012.0 3.0
21/06:00am 11.5 11.9 11.3 99 0.1 CALM 0 0 0 0 1011.8 1011.8 3.0
21/05:35am 12.0 12.6 11.8 99 0.1 CALM 0 0 0 0 1011.6 1011.6 3.0
21/05:30am 12.4 13.1 12.2 99 0.1 CALM 0 0 0 0 1011.7 1011.7 3.0
21/05:28am 12.2 12.8 12.0 99 0.1 CALM 0 0 0 0 1011.6 1011.6 3.0
21/05:00am 12.2 12.1 12.0 99 0.1 SSW 4 7 2 4 1011.4 1011.4 3.0
21/04:40am 12.6 12.0 12.4 99 0.1 SSW 7 9 4 5 1011.2 1011.2 3.0
21/04:30am 12.6 13.4 12.4 99 0.1 CALM 0 0 0 0 1011.2 1011.2 3.0
21/04:00am 13.0 13.5 12.7 98 0.2 SSE 2 6 1 3 1011.2 1011.2 3.0
21/03:30am 14.1 13.6 13.8 98 0.2 NE 9 9 5 5 1011.3 1011.3 3.0
21/03:00am 14.0 13.8 13.7 98 0.2 ENE 7 9 4 5 1011.3 1011.3 3.0
21/02:30am 14.6 16.0 14.3 98 0.2 CALM 0 0 0 0 1011.4 1011.4 3.0
21/02:00am 14.8 15.0 14.3 97 0.3 NE 6 11 3 6 1011.7 1011.7 3.0
21/01:30am 15.3 14.7 14.5 95 0.5 NE 11 15 6 8 1012.1 1012.1 3.0
21/01:00am 15.4 14.8 14.6 95 0.5 NE 11 13 6 7 1012.4 1012.4 3.0
21/12:30am 15.8 15.3 14.8 94 0.6 NNE 11 15 6 8 1012.5 1012.5 3.0
21/12:00am 16.0 16.2 14.7 92 0.7 NE 7 9 4 5 1012.9 1012.9 3.0
 
Date/Time
EST
Temp
°C
App
Temp
°C
Dew
Point
°C
Rel
Hum
%
Delta-T
°C
Wind Press
QNH
hPa
Press
MSL
hPa
Rain since
9am
mm
Dir  Spd
km/h
Gust
km/h
Spd
kts
Gust
kts
20/11:30pm 16.2 16.2 15.1 93 0.6 NE 9 9 5 5 1012.9 1012.9 3.0
20/11:00pm 16.4 16.2 14.8 90 0.9 N 9 13 5 7 1013.1 1013.1 3.0
20/10:30pm 16.1 17.5 14.3 89 1.0 CALM 0 4 0 2 1013.1 1013.1 3.0
20/10:00pm 16.4 16.5 13.9 85 1.4 N 6 7 3 4 1013.0 1013.0 3.0
20/09:30pm 16.9 16.9 14.2 84 1.5 N 7 9 4 5 1013.1 1013.1 3.0
20/09:00pm 17.5 17.1 14.2 81 1.9 N 9 13 5 7 1013.1 1013.1 3.0
20/08:30pm 18.1 16.6 14.2 78 2.2 N 15 20 8 11 1012.8 1012.8 3.0
20/08:00pm 18.4 17.2 14.1 76 2.5 N 13 19 7 10 1012.6 1012.6 3.0
20/07:30pm 18.8 16.9 14.3 75 2.6 N 17 22 9 12 1012.4 1012.4 3.0
20/07:00pm 18.7 17.3 14.4 76 2.5 N 15 20 8 11 1011.9 1011.9 3.0
20/06:30pm 18.8 17.8 14.7 77 2.4 N 13 19 7 10 1011.4 1011.4 3.0
20/06:00pm 19.0 19.0 15.1 78 2.3 N 9 15 5 8 1011.0 1011.0 3.0

Latest Capital City Observations: Canberra | Sydney | Melbourne | Brisbane | Adelaide | Perth | Hobart | Darwin

Other formats

Comma delimited format used in spreadsheet applications
http://www.bom.gov.au/fwo/IDN60901/IDN60901.95753.axf

JavaScript Object Notation format (JSON) in row-major order
http://www.bom.gov.au/fwo/IDN60901/IDN60901.95753.json

Data quality

Most of these data are generated automatically and are frequently updated. Quality checks on data are not normally performed. It is possible for incorrect values to appear. Refer to information at About Latest Weather Observations and please check the disclaimer before using these data.